createdAt,value
2019-05-25T00:00:05.706Z,0.00
2019-05-25T00:01:05.676Z,0.00
2019-05-25T00:02:05.664Z,0.00
2019-05-25T00:03:05.716Z,0.00
2019-05-25T00:04:05.646Z,0.00
2019-05-25T00:05:05.658Z,0.00
2019-05-25T00:06:05.641Z,0.00
2019-05-25T00:07:05.835Z,0.00
2019-05-25T00:08:05.604Z,0.00
2019-05-25T00:09:05.592Z,0.00
2019-05-25T00:10:05.668Z,0.00
2019-05-25T00:11:05.576Z,0.00
2019-05-25T00:12:05.572Z,0.00
2019-05-25T00:13:05.555Z,0.00
2019-05-25T00:14:05.547Z,0.00
2019-05-25T00:15:05.541Z,0.00
2019-05-25T00:16:05.513Z,0.00
2019-05-25T00:17:05.508Z,0.00
2019-05-25T00:18:05.496Z,0.00
2019-05-25T00:19:05.482Z,0.00
2019-05-25T00:20:05.487Z,0.00
2019-05-25T00:21:05.461Z,0.00
2019-05-25T00:22:05.450Z,0.00
2019-05-25T00:23:05.441Z,0.00
2019-05-25T00:24:12.089Z,0.00
2019-05-25T00:25:06.429Z,0.00
2019-05-25T00:26:05.411Z,0.00
2019-05-25T00:27:05.416Z,0.00
2019-05-25T00:28:05.388Z,0.00
2019-05-25T00:29:05.372Z,0.00
2019-05-25T00:30:05.387Z,0.00
2019-05-25T00:31:05.359Z,0.00
2019-05-25T00:32:05.349Z,0.00
2019-05-25T00:33:05.343Z,0.00
2019-05-25T00:34:05.322Z,0.00
2019-05-25T00:35:05.327Z,0.00
2019-05-25T00:36:05.303Z,0.00
2019-05-25T00:37:05.289Z,0.00
2019-05-25T00:38:05.294Z,0.00
2019-05-25T00:39:05.283Z,0.00
2019-05-25T00:40:05.291Z,0.00
2019-05-25T00:41:05.246Z,0.00
2019-05-25T00:42:05.251Z,0.00
2019-05-25T00:43:05.228Z,0.00
2019-05-25T00:44:05.213Z,0.00
2019-05-25T00:45:05.220Z,0.00
2019-05-25T00:46:05.202Z,0.00
2019-05-25T00:47:05.178Z,0.00
2019-05-25T00:48:05.167Z,0.00
2019-05-25T00:49:05.164Z,0.00
2019-05-25T00:50:05.162Z,0.00
2019-05-25T00:51:05.140Z,0.00
2019-05-25T00:52:05.124Z,0.00
2019-05-25T00:53:05.118Z,0.00
2019-05-25T00:54:05.113Z,0.00
2019-05-25T00:55:05.107Z,0.00
2019-05-25T00:56:05.085Z,0.00
2019-05-25T00:57:05.074Z,0.00
2019-05-25T00:58:05.058Z,0.00
2019-05-25T00:59:05.056Z,0.00
2019-05-25T01:00:05.059Z,0.00
2019-05-25T01:01:05.134Z,0.00
2019-05-25T01:02:05.018Z,0.00
2019-05-25T01:03:05.013Z,0.00
2019-05-25T01:04:04.994Z,0.00
2019-05-25T01:05:04.997Z,0.00
2019-05-25T01:06:04.973Z,0.00
2019-05-25T01:07:04.963Z,0.00
2019-05-25T01:08:04.946Z,0.00
2019-05-25T01:09:04.940Z,0.00
2019-05-25T01:10:04.941Z,0.00
2019-05-25T01:11:04.921Z,0.00
2019-05-25T01:12:04.900Z,0.00
2019-05-25T01:13:04.901Z,0.00
2019-05-25T01:14:04.877Z,0.00
2019-05-25T01:15:04.902Z,0.00
2019-05-25T01:16:04.862Z,0.00
2019-05-25T01:17:04.847Z,0.00
2019-05-25T01:18:04.839Z,0.00
2019-05-25T01:19:04.862Z,0.00
2019-05-25T01:20:04.814Z,0.00
2019-05-25T01:21:04.820Z,0.00
2019-05-25T01:22:04.800Z,0.00
2019-05-25T01:23:04.785Z,0.00
2019-05-25T01:24:04.776Z,0.00
2019-05-25T01:25:04.762Z,0.00
2019-05-25T01:26:04.767Z,0.00
2019-05-25T01:27:04.740Z,0.00
2019-05-25T01:28:04.730Z,0.00
2019-05-25T01:29:04.713Z,0.00
2019-05-25T01:30:04.713Z,0.00
2019-05-25T01:31:04.719Z,0.00
2019-05-25T01:32:04.684Z,0.00
2019-05-25T01:33:04.678Z,0.00
2019-05-25T01:34:04.666Z,0.00
2019-05-25T01:35:04.660Z,0.00
2019-05-25T01:36:04.666Z,0.00
2019-05-25T01:37:04.631Z,0.00
2019-05-25T01:38:04.620Z,0.00
2019-05-25T01:39:04.614Z,0.00
2019-05-25T01:40:04.615Z,0.00
2019-05-25T01:41:04.605Z,0.00
2019-05-25T01:42:04.575Z,0.00
2019-05-25T01:43:04.567Z,0.00
2019-05-25T01:44:04.622Z,0.00
2019-05-25T01:45:04.549Z,0.00
2019-05-25T01:46:04.551Z,0.00
2019-05-25T01:47:04.541Z,0.00
2019-05-25T01:48:04.526Z,0.00
2019-05-25T01:49:04.503Z,0.00
2019-05-25T01:50:04.495Z,0.00
2019-05-25T01:51:04.496Z,0.00
2019-05-25T01:52:04.479Z,0.00
2019-05-25T01:53:04.457Z,0.00
2019-05-25T01:54:04.455Z,0.00
2019-05-25T01:55:04.442Z,0.00
2019-05-25T01:56:04.460Z,0.00
2019-05-25T01:57:04.426Z,0.00
2019-05-25T01:58:04.412Z,0.00
2019-05-25T01:59:04.408Z,0.00
2019-05-25T02:00:04.389Z,0.00
2019-05-25T02:01:04.397Z,0.00
2019-05-25T02:02:04.374Z,0.00
2019-05-25T02:03:04.368Z,0.00
2019-05-25T02:04:04.355Z,0.00
2019-05-25T02:05:04.337Z,0.00
2019-05-25T02:06:04.339Z,0.00
2019-05-25T02:07:04.310Z,0.00
2019-05-25T02:08:04.304Z,0.00
2019-05-25T02:09:04.290Z,0.00
2019-05-25T02:10:04.288Z,0.00
2019-05-25T02:11:04.291Z,0.00
2019-05-25T02:12:04.262Z,0.00
2019-05-25T02:13:04.256Z,0.00
2019-05-25T02:14:04.244Z,0.00
2019-05-25T02:15:05.133Z,0.00
2019-05-25T02:16:04.241Z,0.00
2019-05-25T02:17:04.202Z,0.00
2019-05-25T02:18:04.199Z,0.00
2019-05-25T02:19:04.185Z,0.00
2019-05-25T02:20:04.176Z,0.00
2019-05-25T02:21:04.173Z,0.00
2019-05-25T02:22:04.158Z,0.00
2019-05-25T02:23:04.144Z,0.00
2019-05-25T02:24:04.131Z,0.00
2019-05-25T02:25:16.964Z,0.00
2019-05-25T02:26:05.126Z,0.00
2019-05-25T02:27:04.097Z,0.00
2019-05-25T02:28:04.093Z,0.00
2019-05-25T02:29:04.081Z,0.00
2019-05-25T02:30:04.155Z,0.00
2019-05-25T02:31:04.087Z,0.00
2019-05-25T02:32:04.047Z,0.00
2019-05-25T02:33:04.045Z,0.00
2019-05-25T02:34:04.027Z,0.00
2019-05-25T02:35:04.020Z,0.00
2019-05-25T02:36:04.044Z,0.00
2019-05-25T02:37:03.999Z,0.00
2019-05-25T02:38:03.986Z,0.00
2019-05-25T02:39:03.973Z,0.00
2019-05-25T02:40:04.644Z,0.00
2019-05-25T02:41:03.980Z,0.00
2019-05-25T02:42:03.941Z,0.00
2019-05-25T02:43:03.929Z,0.00
2019-05-25T02:44:03.922Z,0.00
2019-05-25T02:45:03.909Z,0.00
2019-05-25T02:46:03.932Z,0.00
2019-05-25T02:47:03.893Z,0.00
2019-05-25T02:48:03.877Z,0.00
2019-05-25T02:49:03.871Z,0.00
2019-05-25T02:50:03.859Z,0.00
2019-05-25T02:51:03.862Z,0.00
2019-05-25T02:52:03.843Z,0.00
2019-05-25T02:53:03.827Z,0.00
2019-05-25T02:54:03.813Z,0.00
2019-05-25T02:55:03.820Z,0.00
2019-05-25T02:56:03.821Z,0.00
2019-05-25T02:57:03.790Z,0.00
2019-05-25T02:58:03.791Z,0.00
2019-05-25T02:59:03.762Z,0.00
2019-05-25T03:00:03.761Z,0.00
2019-05-25T03:01:03.759Z,0.00
2019-05-25T03:02:03.735Z,0.00
2019-05-25T03:03:03.728Z,0.00
2019-05-25T03:04:03.713Z,0.00
2019-05-25T03:05:03.716Z,0.00
2019-05-25T03:06:04.161Z,0.00
2019-05-25T03:07:03.674Z,0.00
2019-05-25T03:08:03.675Z,0.00
2019-05-25T03:09:03.750Z,0.00
2019-05-25T03:10:03.712Z,0.00
2019-05-25T03:11:03.656Z,0.00
2019-05-25T03:12:03.628Z,0.00
2019-05-25T03:13:03.616Z,0.00
2019-05-25T03:14:03.608Z,0.00
2019-05-25T03:15:04.046Z,0.00
2019-05-25T03:16:03.656Z,0.00
2019-05-25T03:17:03.592Z,0.00
2019-05-25T03:18:03.825Z,0.00
2019-05-25T03:19:03.552Z,0.00
2019-05-25T03:20:03.537Z,0.00
2019-05-25T03:21:03.560Z,0.00
2019-05-25T03:22:03.519Z,0.00
2019-05-25T03:23:03.512Z,0.00
2019-05-25T03:24:03.497Z,0.00
2019-05-25T03:25:03.486Z,0.00
2019-05-25T03:26:03.475Z,0.00
2019-05-25T03:27:03.567Z,0.00
2019-05-25T03:28:03.453Z,0.00
2019-05-25T03:29:03.448Z,0.00
2019-05-25T03:30:03.433Z,0.00
2019-05-25T03:31:03.478Z,0.00
2019-05-25T03:32:03.432Z,0.00
2019-05-25T03:33:03.415Z,0.00
2019-05-25T03:34:03.395Z,0.00
2019-05-25T03:35:03.379Z,0.00
2019-05-25T03:36:03.374Z,0.00
2019-05-25T03:37:03.418Z,0.00
2019-05-25T03:38:03.474Z,0.00
2019-05-25T03:39:03.339Z,0.00
2019-05-25T03:40:03.328Z,0.00
2019-05-25T03:41:03.312Z,0.00
2019-05-25T03:42:03.326Z,0.00
2019-05-25T03:43:03.306Z,0.00
2019-05-25T03:44:03.282Z,0.00
2019-05-25T03:45:03.282Z,0.00
2019-05-25T03:46:03.267Z,0.00
2019-05-25T03:47:03.274Z,0.00
2019-05-25T03:48:03.245Z,0.00
2019-05-25T03:49:03.243Z,0.00
2019-05-25T03:50:03.241Z,0.00
2019-05-25T03:51:03.208Z,0.00
2019-05-25T03:52:03.214Z,0.00
2019-05-25T03:53:03.188Z,0.00
2019-05-25T03:54:03.185Z,0.00
2019-05-25T03:55:03.167Z,0.00
2019-05-25T03:56:06.178Z,0.00
2019-05-25T03:57:03.160Z,0.00
2019-05-25T03:58:03.134Z,0.00
2019-05-25T03:59:03.123Z,0.00
2019-05-25T04:00:03.112Z,0.00
2019-05-25T04:01:03.102Z,0.00
2019-05-25T04:02:03.104Z,0.00
2019-05-25T04:03:03.093Z,0.00
2019-05-25T04:04:03.065Z,0.00
2019-05-25T04:05:03.058Z,0.00
2019-05-25T04:06:03.057Z,0.00
2019-05-25T04:07:03.058Z,0.00
2019-05-25T04:08:03.021Z,0.00
2019-05-25T04:09:03.008Z,0.00
2019-05-25T04:10:03.012Z,0.00
2019-05-25T04:11:02.992Z,0.00
2019-05-25T04:12:02.989Z,0.00
2019-05-25T04:13:02.964Z,0.00
2019-05-25T04:14:02.965Z,0.00
2019-05-25T04:15:02.951Z,0.00
2019-05-25T04:16:02.936Z,0.00
2019-05-25T04:17:02.953Z,0.00
2019-05-25T04:18:02.952Z,0.00
2019-05-25T04:19:02.904Z,0.00
2019-05-25T04:20:02.901Z,0.00
2019-05-25T04:21:02.885Z,0.00
2019-05-25T04:22:02.888Z,0.00
2019-05-25T04:23:02.866Z,0.00
2019-05-25T04:24:02.849Z,0.00
2019-05-25T04:25:02.838Z,0.00
2019-05-25T04:26:02.839Z,0.00
2019-05-25T04:27:02.832Z,0.00
2019-05-25T04:28:02.813Z,0.00
2019-05-25T04:29:02.811Z,0.00
2019-05-25T04:30:02.789Z,0.00
2019-05-25T04:31:02.785Z,0.00
2019-05-25T04:32:02.894Z,0.00
2019-05-25T04:33:02.764Z,0.00
2019-05-25T04:34:02.749Z,0.00
2019-05-25T04:35:02.742Z,0.00
2019-05-25T04:36:02.727Z,0.00
2019-05-25T04:37:02.755Z,0.00
2019-05-25T04:38:03.215Z,0.00
2019-05-25T04:39:02.723Z,0.00
2019-05-25T04:40:02.688Z,0.00
2019-05-25T04:41:02.680Z,0.00
2019-05-25T04:42:02.686Z,0.00
2019-05-25T04:43:02.664Z,0.00
2019-05-25T04:44:02.650Z,0.00
2019-05-25T04:45:02.637Z,0.00
2019-05-25T04:46:02.631Z,0.00
2019-05-25T04:47:02.632Z,0.00
2019-05-25T04:48:02.601Z,0.00
2019-05-25T04:49:02.634Z,0.00
2019-05-25T04:50:02.586Z,0.00
2019-05-25T04:51:02.570Z,0.00
2019-05-25T04:52:02.593Z,0.00
2019-05-25T04:53:02.559Z,0.00
2019-05-25T04:54:02.549Z,0.00
2019-05-25T04:55:02.528Z,0.00
2019-05-25T04:56:02.518Z,0.00
2019-05-25T04:57:02.747Z,0.00
2019-05-25T04:58:02.498Z,0.00
2019-05-25T04:59:02.490Z,0.00
2019-05-25T05:00:02.476Z,0.00
2019-05-25T05:01:02.465Z,0.00
2019-05-25T05:02:02.467Z,0.00
2019-05-25T05:03:02.454Z,0.00
2019-05-25T05:04:02.582Z,0.00
2019-05-25T05:05:02.469Z,0.00
2019-05-25T05:06:02.412Z,0.00
2019-05-25T05:07:02.419Z,0.00
2019-05-25T05:08:02.395Z,0.00
2019-05-25T05:09:02.403Z,0.00
2019-05-25T05:10:03.403Z,0.00
2019-05-25T05:11:02.423Z,0.00
2019-05-25T05:12:02.377Z,0.00
2019-05-25T05:13:02.340Z,0.00
2019-05-25T05:14:02.333Z,0.00
2019-05-25T05:15:02.319Z,0.00
2019-05-25T05:16:02.305Z,0.00
2019-05-25T05:17:02.310Z,0.00
2019-05-25T05:18:02.289Z,0.00
2019-05-25T05:19:02.288Z,0.00
2019-05-25T05:20:02.264Z,0.00
2019-05-25T05:21:02.267Z,0.00
2019-05-25T05:22:05.565Z,0.00
2019-05-25T05:23:02.253Z,0.00
2019-05-25T05:24:02.223Z,0.00
2019-05-25T05:25:02.221Z,0.00
2019-05-25T05:26:02.209Z,0.00
2019-05-25T05:27:02.211Z,0.00
2019-05-25T05:28:02.185Z,0.00
2019-05-25T05:29:02.196Z,0.00
2019-05-25T05:30:02.165Z,0.00
2019-05-25T05:31:02.150Z,0.00
2019-05-25T05:32:02.251Z,0.00
2019-05-25T05:33:02.143Z,0.00
2019-05-25T05:34:02.114Z,0.00
2019-05-25T05:35:02.116Z,0.00
2019-05-25T05:36:02.098Z,0.00
2019-05-25T05:37:02.147Z,0.00
2019-05-25T05:38:02.080Z,0.00
2019-05-25T05:39:02.072Z,4.00
2019-05-25T05:40:02.134Z,8.00
2019-05-25T05:41:02.054Z,8.00
2019-05-25T05:42:02.075Z,8.00
2019-05-25T05:43:02.031Z,8.00
2019-05-25T05:44:02.020Z,0.00
2019-05-25T05:45:02.101Z,8.00
2019-05-25T05:46:02.041Z,8.00
2019-05-25T05:47:01.983Z,8.00
2019-05-25T05:48:01.990Z,8.00
2019-05-25T05:49:01.997Z,8.00
2019-05-25T05:50:01.970Z,8.00
2019-05-25T05:51:01.942Z,8.00
2019-05-25T05:52:01.937Z,8.00
2019-05-25T05:53:01.975Z,8.00
2019-05-25T05:54:01.919Z,8.00
2019-05-25T05:55:01.982Z,8.00
2019-05-25T05:56:02.736Z,8.00
2019-05-25T05:57:11.957Z,8.00
2019-05-25T05:58:02.889Z,8.00
2019-05-25T05:59:01.868Z,8.00
2019-05-25T06:00:01.850Z,8.00
2019-05-25T06:01:01.836Z,360.00
2019-05-25T06:02:01.826Z,352.00
2019-05-25T06:03:01.841Z,364.00
2019-05-25T06:04:01.937Z,372.00
2019-05-25T06:05:02.615Z,376.00
2019-05-25T06:06:01.786Z,408.00
2019-05-25T06:07:01.772Z,416.00
2019-05-25T06:08:01.783Z,500.00
2019-05-25T06:09:01.753Z,392.00
2019-05-25T06:10:01.739Z,368.00
2019-05-25T06:11:01.734Z,432.00
2019-05-25T06:12:01.723Z,360.00
2019-05-25T06:13:01.729Z,336.00
2019-05-25T06:14:01.694Z,400.00
2019-05-25T06:15:01.685Z,400.00
2019-05-25T06:16:01.672Z,448.00
2019-05-25T06:17:01.662Z,428.00
2019-05-25T06:18:01.663Z,404.00
2019-05-25T06:19:01.650Z,452.00
2019-05-25T06:20:01.647Z,484.00
2019-05-25T06:21:01.624Z,392.00
2019-05-25T06:22:01.619Z,440.00
2019-05-25T06:23:01.609Z,424.00
2019-05-25T06:24:01.583Z,552.00
2019-05-25T06:25:01.590Z,760.00
2019-05-25T06:26:01.584Z,820.00
2019-05-25T06:27:01.554Z,676.00
2019-05-25T06:28:01.606Z,808.00
2019-05-25T06:29:01.528Z,888.00
2019-05-25T06:30:01.550Z,852.00
2019-05-25T06:31:01.506Z,1024.00
2019-05-25T06:32:01.497Z,988.00
2019-05-25T06:33:01.504Z,1148.00
2019-05-25T06:34:01.480Z,1140.00
2019-05-25T06:35:02.269Z,1000.00
2019-05-25T06:36:01.462Z,908.00
2019-05-25T06:37:01.544Z,884.00
2019-05-25T06:38:01.504Z,1164.00
2019-05-25T06:39:01.421Z,1088.00
2019-05-25T06:40:01.438Z,1056.00
2019-05-25T06:41:01.396Z,860.00
2019-05-25T06:42:01.400Z,808.00
2019-05-25T06:43:01.461Z,904.00
2019-05-25T06:44:01.402Z,1172.00
2019-05-25T06:45:01.361Z,1160.00
2019-05-25T06:46:01.362Z,1004.00
2019-05-25T06:47:01.344Z,1028.00
2019-05-25T06:48:01.337Z,984.00
2019-05-25T06:49:01.346Z,904.00
2019-05-25T06:50:01.326Z,1180.00
2019-05-25T06:51:01.295Z,1072.00
2019-05-25T06:52:01.278Z,904.00
2019-05-25T06:53:01.281Z,980.00
2019-05-25T06:54:01.280Z,1184.00
2019-05-25T06:55:01.283Z,1148.00
2019-05-25T06:56:01.243Z,1284.00
2019-05-25T06:57:01.231Z,1248.00
2019-05-25T06:58:01.267Z,1204.00
2019-05-25T06:59:01.211Z,1160.00
2019-05-25T07:00:01.247Z,1112.00
2019-05-25T07:01:01.189Z,1184.00
2019-05-25T07:02:01.183Z,1260.00
2019-05-25T07:03:01.170Z,1208.00
2019-05-25T07:04:01.142Z,1224.00
2019-05-25T07:05:01.134Z,1120.00
2019-05-25T07:06:01.125Z,1020.00
2019-05-25T07:07:01.111Z,1020.00
2019-05-25T07:08:01.166Z,1144.00
2019-05-25T07:09:01.136Z,1060.00
2019-05-25T07:10:01.103Z,936.00
2019-05-25T07:11:01.073Z,1036.00
2019-05-25T07:12:01.052Z,868.00
2019-05-25T07:13:01.721Z,904.00
2019-05-25T07:14:01.038Z,1292.00
2019-05-25T07:15:01.028Z,1284.00
2019-05-25T07:16:01.015Z,1376.00
2019-05-25T07:17:01.012Z,1276.00
2019-05-25T07:18:01.014Z,1152.00
2019-05-25T07:19:01.006Z,1380.00
2019-05-25T07:20:00.968Z,1196.00
2019-05-25T07:21:00.965Z,972.00
2019-05-25T07:22:00.971Z,1172.00
2019-05-25T07:23:00.949Z,1476.00
2019-05-25T07:24:00.933Z,1536.00
2019-05-25T07:25:00.930Z,1320.00
2019-05-25T07:26:00.916Z,1300.00
2019-05-25T07:27:00.904Z,1372.00
2019-05-25T07:28:00.915Z,1516.00
2019-05-25T07:29:00.875Z,1388.00
2019-05-25T07:30:00.873Z,1396.00
2019-05-25T07:31:00.862Z,1332.00
2019-05-25T07:32:00.859Z,1264.00
2019-05-25T07:33:00.843Z,1288.00
2019-05-25T07:34:00.829Z,1260.00
2019-05-25T07:35:00.809Z,1200.00
2019-05-25T07:36:00.896Z,1220.00
2019-05-25T07:37:00.791Z,1204.00
2019-05-25T07:38:00.784Z,1108.00
2019-05-25T07:39:00.790Z,1064.00
2019-05-25T07:40:00.766Z,976.00
2019-05-25T07:41:00.746Z,1036.00
2019-05-25T07:42:00.830Z,964.00
2019-05-25T07:43:00.729Z,940.00
2019-05-25T07:44:00.729Z,932.00
2019-05-25T07:45:00.706Z,964.00
2019-05-25T07:46:00.689Z,1024.00
2019-05-25T07:47:00.680Z,1088.00
2019-05-25T07:48:00.682Z,1032.00
2019-05-25T07:49:00.691Z,912.00
2019-05-25T07:50:00.649Z,916.00
2019-05-25T07:51:00.635Z,1020.00
2019-05-25T07:52:02.595Z,944.00
2019-05-25T07:53:00.612Z,916.00
2019-05-25T07:54:00.618Z,1132.00
2019-05-25T07:55:00.593Z,1128.00
2019-05-25T07:56:00.581Z,1040.00
2019-05-25T07:57:00.568Z,1188.00
2019-05-25T07:58:15.762Z,1152.00
2019-05-25T07:59:01.566Z,964.00
2019-05-25T08:00:00.536Z,976.00
2019-05-25T08:01:00.530Z,924.00
2019-05-25T08:02:00.514Z,952.00
2019-05-25T08:03:00.505Z,924.00
2019-05-25T08:04:00.527Z,1144.00
2019-05-25T08:05:00.538Z,1424.00
2019-05-25T08:06:00.513Z,1504.00
2019-05-25T08:07:00.466Z,1580.00
2019-05-25T08:08:00.483Z,1828.00
2019-05-25T08:09:00.527Z,1768.00
2019-05-25T08:10:00.452Z,1500.00
2019-05-25T08:11:00.415Z,1532.00
2019-05-25T08:12:00.405Z,1692.00
2019-05-25T08:13:00.423Z,1764.00
2019-05-25T08:14:00.402Z,1728.00
2019-05-25T08:15:00.374Z,1576.00
2019-05-25T08:16:00.400Z,1532.00
2019-05-25T08:17:00.387Z,1656.00
2019-05-25T08:18:00.356Z,1588.00
2019-05-25T08:19:00.373Z,1060.00
2019-05-25T08:20:00.320Z,764.00
2019-05-25T08:21:00.320Z,720.00
2019-05-25T08:22:00.305Z,648.00
2019-05-25T08:23:00.285Z,752.00
2019-05-25T08:24:00.349Z,764.00
2019-05-25T08:25:00.306Z,824.00
2019-05-25T08:26:00.335Z,880.00
2019-05-25T08:27:00.257Z,968.00
2019-05-25T08:28:00.235Z,984.00
2019-05-25T08:29:00.239Z,940.00
2019-05-25T08:30:00.236Z,1040.00
2019-05-25T08:31:01.395Z,1092.00
2019-05-25T08:32:00.209Z,1216.00
2019-05-25T08:33:00.175Z,1184.00
2019-05-25T08:34:00.219Z,1284.00
2019-05-25T08:35:00.155Z,1380.00
2019-05-25T08:36:00.153Z,1276.00
2019-05-25T08:37:00.170Z,1180.00
2019-05-25T08:38:00.161Z,1076.00
2019-05-25T08:39:00.165Z,1032.00
2019-05-25T08:40:00.096Z,1040.00
2019-05-25T08:41:00.106Z,976.00
2019-05-25T08:42:00.112Z,1012.00
2019-05-25T08:43:00.060Z,1144.00
2019-05-25T08:44:00.125Z,988.00
2019-05-25T08:45:00.047Z,1004.00
2019-05-25T08:46:00.036Z,932.00
2019-05-25T08:47:00.026Z,1016.00
2019-05-25T08:48:00.009Z,1220.00
2019-05-25T08:49:00.022Z,1352.00
2019-05-25T08:49:59.987Z,1320.00
2019-05-25T08:50:59.996Z,1468.00
2019-05-25T08:51:59.967Z,1480.00
2019-05-25T08:52:59.957Z,1604.00
2019-05-25T08:53:59.966Z,1668.00
2019-05-25T08:54:59.936Z,1716.00
2019-05-25T08:55:59.945Z,1708.00
2019-05-25T08:56:59.914Z,1700.00
2019-05-25T08:57:59.904Z,1604.00
2019-05-25T08:58:59.908Z,1376.00
2019-05-25T08:59:59.878Z,1172.00
2019-05-25T09:00:59.873Z,1204.00
2019-05-25T09:01:59.856Z,1108.00
2019-05-25T09:02:59.844Z,940.00
2019-05-25T09:03:59.862Z,828.00
2019-05-25T09:04:59.826Z,804.00
2019-05-25T09:05:59.819Z,752.00
2019-05-25T09:06:59.824Z,708.00
2019-05-25T09:07:59.806Z,692.00
2019-05-25T09:08:59.814Z,688.00
2019-05-25T09:09:59.770Z,712.00
2019-05-25T09:10:59.760Z,728.00
2019-05-25T09:11:59.755Z,744.00
2019-05-25T09:12:59.739Z,964.00
2019-05-25T09:13:59.758Z,1024.00
2019-05-25T09:14:59.723Z,968.00
2019-05-25T09:15:59.709Z,900.00
2019-05-25T09:16:59.706Z,856.00
2019-05-25T09:17:59.720Z,880.00
2019-05-25T09:18:59.715Z,912.00
2019-05-25T09:19:59.667Z,844.00
2019-05-25T09:20:59.672Z,940.00
2019-05-25T09:22:03.132Z,1156.00
2019-05-25T09:22:59.645Z,1296.00
2019-05-25T09:23:59.648Z,1296.00
2019-05-25T09:24:59.618Z,1464.00
2019-05-25T09:25:59.605Z,1596.00
2019-05-25T09:26:59.635Z,1604.00
2019-05-25T09:27:59.588Z,1712.00
2019-05-25T09:29:04.440Z,1704.00
2019-05-25T09:30:00.564Z,1688.00
2019-05-25T09:30:59.555Z,1524.00
2019-05-25T09:31:59.547Z,1440.00
2019-05-25T09:32:59.547Z,1292.00
2019-05-25T09:33:59.556Z,1448.00
2019-05-25T09:34:59.510Z,1436.00
2019-05-25T09:35:59.507Z,1228.00
2019-05-25T09:36:59.485Z,1244.00
2019-05-25T09:37:59.480Z,1284.00
2019-05-25T09:38:59.494Z,1268.00
2019-05-25T09:39:59.468Z,1224.00
2019-05-25T09:40:59.447Z,1136.00
2019-05-25T09:41:59.439Z,1184.00
2019-05-25T09:42:59.436Z,1244.00
2019-05-25T09:43:59.415Z,1208.00
2019-05-25T09:44:59.415Z,1152.00
2019-05-25T09:45:59.397Z,1152.00
2019-05-25T09:46:59.380Z,1324.00
2019-05-25T09:47:59.370Z,1532.00
2019-05-25T09:48:59.366Z,1500.00
2019-05-25T09:49:59.371Z,1576.00
2019-05-25T09:50:59.338Z,1568.00
2019-05-25T09:51:59.323Z,1524.00
2019-05-25T09:52:59.319Z,1520.00
2019-05-25T09:53:59.308Z,1456.00
2019-05-25T09:54:59.315Z,1492.00
2019-05-25T09:55:59.320Z,1372.00
2019-05-25T09:56:59.271Z,1240.00
2019-05-25T09:57:59.272Z,1196.00
2019-05-25T09:58:59.252Z,1136.00
2019-05-25T09:59:59.256Z,1188.00
2019-05-25T10:00:59.231Z,1356.00
2019-05-25T10:01:59.226Z,1444.00
2019-05-25T10:02:59.210Z,1472.00
2019-05-25T10:03:59.203Z,1348.00
2019-05-25T10:04:59.201Z,1336.00
2019-05-25T10:05:59.179Z,1392.00
2019-05-25T10:06:59.168Z,1480.00
2019-05-25T10:07:59.154Z,1636.00
2019-05-25T10:08:59.148Z,1612.00
2019-05-25T10:09:59.145Z,1456.00
2019-05-25T10:10:59.124Z,1468.00
2019-05-25T10:11:59.110Z,1432.00
2019-05-25T10:12:59.098Z,1208.00
2019-05-25T10:13:59.085Z,1140.00
2019-05-25T10:14:59.095Z,1108.00
2019-05-25T10:15:59.064Z,1140.00
2019-05-25T10:16:59.104Z,1276.00
2019-05-25T10:17:59.095Z,1304.00
2019-05-25T10:18:59.030Z,1312.00
2019-05-25T10:19:59.060Z,1348.00
2019-05-25T10:20:59.012Z,1216.00
2019-05-25T10:21:59.681Z,1048.00
2019-05-25T10:22:58.995Z,980.00
2019-05-25T10:23:58.984Z,908.00
2019-05-25T10:24:59.013Z,864.00
2019-05-25T10:25:58.984Z,836.00
2019-05-25T10:26:58.944Z,848.00
2019-05-25T10:27:58.944Z,932.00
2019-05-25T10:28:58.928Z,1124.00
2019-05-25T10:29:58.945Z,1156.00
2019-05-25T10:30:58.903Z,1168.00
2019-05-25T10:31:58.898Z,1188.00
2019-05-25T10:32:58.880Z,1156.00
2019-05-25T10:33:58.866Z,1404.00
2019-05-25T10:34:58.882Z,1548.00
2019-05-25T10:35:59.774Z,1340.00
2019-05-25T10:36:58.835Z,1280.00
2019-05-25T10:37:58.834Z,1112.00
2019-05-25T10:38:58.812Z,1072.00
2019-05-25T10:39:58.814Z,1028.00
2019-05-25T10:40:58.795Z,1164.00
2019-05-25T10:41:58.785Z,1464.00
2019-05-25T10:42:58.770Z,1612.00
2019-05-25T10:43:58.773Z,1616.00
2019-05-25T10:44:58.775Z,1768.00
2019-05-25T10:45:58.737Z,1780.00
2019-05-25T10:46:58.733Z,1716.00
2019-05-25T10:47:58.715Z,1692.00
2019-05-25T10:48:58.703Z,1760.00
2019-05-25T10:49:58.707Z,1864.00
2019-05-25T10:50:58.718Z,2112.00
2019-05-25T10:51:59.318Z,2176.00
2019-05-25T10:52:58.673Z,2128.00
2019-05-25T10:53:58.653Z,2060.00
2019-05-25T10:54:58.657Z,2104.00
2019-05-25T10:55:58.624Z,2040.00
2019-05-25T10:56:58.613Z,2180.00
2019-05-25T10:57:58.603Z,2188.00
2019-05-25T10:58:58.595Z,2012.00
2019-05-25T10:59:58.601Z,1944.00
2019-05-25T11:00:59.326Z,1996.00
2019-05-25T11:01:58.558Z,1920.00
2019-05-25T11:02:58.552Z,1712.00
2019-05-25T11:03:58.542Z,1720.00
2019-05-25T11:04:58.552Z,1712.00
2019-05-25T11:05:58.521Z,1840.00
2019-05-25T11:06:58.513Z,2020.00
2019-05-25T11:07:58.505Z,2204.00
2019-05-25T11:08:58.485Z,2252.00
2019-05-25T11:09:58.533Z,2316.00
2019-05-25T11:10:58.475Z,2272.00
2019-05-25T11:11:58.461Z,2148.00
2019-05-25T11:12:58.443Z,2228.00
2019-05-25T11:13:58.436Z,2228.00
2019-05-25T11:14:58.440Z,2316.00
2019-05-25T11:15:58.409Z,2320.00
2019-05-25T11:16:58.396Z,2216.00
2019-05-25T11:17:58.432Z,2036.00
2019-05-25T11:18:58.382Z,1832.00
2019-05-25T11:19:58.399Z,1664.00
2019-05-25T11:20:58.356Z,1548.00
2019-05-25T11:21:58.350Z,1828.00
2019-05-25T11:22:58.341Z,1968.00
2019-05-25T11:23:58.326Z,1780.00
2019-05-25T11:24:58.316Z,1616.00
2019-05-25T11:25:58.324Z,1620.00
2019-05-25T11:26:59.741Z,1508.00
2019-05-25T11:27:58.294Z,1304.00
2019-05-25T11:28:58.272Z,1200.00
2019-05-25T11:30:08.439Z,1128.00
2019-05-25T11:30:59.267Z,1112.00
2019-05-25T11:32:03.376Z,1104.00
2019-05-25T11:32:59.227Z,1152.00
2019-05-25T11:33:58.241Z,1220.00
2019-05-25T11:34:58.206Z,1288.00
2019-05-25T11:35:58.234Z,1360.00
2019-05-25T11:36:58.184Z,1332.00
2019-05-25T11:37:58.231Z,1284.00
2019-05-25T11:38:58.167Z,1348.00
2019-05-25T11:39:58.186Z,1428.00
2019-05-25T11:40:58.159Z,1452.00
2019-05-25T11:41:58.138Z,1396.00
2019-05-25T11:42:58.136Z,1516.00
2019-05-25T11:43:58.143Z,1756.00
2019-05-25T11:44:58.098Z,2132.00
2019-05-25T11:45:58.126Z,2228.00
2019-05-25T11:46:58.081Z,2240.00
2019-05-25T11:47:58.067Z,2132.00
2019-05-25T11:48:58.055Z,2136.00
2019-05-25T11:49:58.047Z,2028.00
2019-05-25T11:50:58.054Z,1808.00
2019-05-25T11:51:58.030Z,1684.00
2019-05-25T11:52:58.020Z,1596.00
2019-05-25T11:53:57.999Z,1540.00
2019-05-25T11:54:57.998Z,1620.00
2019-05-25T11:55:57.994Z,1748.00
2019-05-25T11:56:57.983Z,1720.00
2019-05-25T11:57:57.956Z,1596.00
2019-05-25T11:58:57.957Z,1444.00
2019-05-25T11:59:57.940Z,1408.00
2019-05-25T12:00:57.937Z,1416.00
2019-05-25T12:01:57.920Z,1344.00
2019-05-25T12:02:57.923Z,1124.00
2019-05-25T12:03:57.922Z,932.00
2019-05-25T12:04:57.890Z,960.00
2019-05-25T12:05:57.897Z,1044.00
2019-05-25T12:06:57.866Z,1124.00
2019-05-25T12:07:57.853Z,1240.00
2019-05-25T12:08:57.848Z,1284.00
2019-05-25T12:09:57.850Z,1356.00
2019-05-25T12:10:57.840Z,1504.00
2019-05-25T12:11:57.818Z,1540.00
2019-05-25T12:12:57.802Z,1680.00
2019-05-25T12:13:57.797Z,1840.00
2019-05-25T12:14:57.775Z,1888.00
2019-05-25T12:15:57.777Z,2064.00
2019-05-25T12:16:57.759Z,1980.00
2019-05-25T12:17:57.750Z,1628.00
2019-05-25T12:18:57.729Z,1320.00
2019-05-25T12:19:57.720Z,1092.00
2019-05-25T12:20:57.724Z,1096.00
2019-05-25T12:21:57.709Z,1272.00
2019-05-25T12:22:58.344Z,1272.00
2019-05-25T12:23:57.678Z,1072.00
2019-05-25T12:24:57.669Z,1124.00
2019-05-25T12:25:57.688Z,1328.00
2019-05-25T12:26:57.647Z,1688.00
2019-05-25T12:27:57.648Z,2052.00
2019-05-25T12:28:57.624Z,2320.00
2019-05-25T12:29:57.621Z,2408.00
2019-05-25T12:30:57.624Z,2352.00
2019-05-25T12:32:04.189Z,2108.00
2019-05-25T12:32:58.584Z,2012.00
2019-05-25T12:33:57.574Z,1808.00
2019-05-25T12:34:57.559Z,1416.00
2019-05-25T12:35:57.561Z,1284.00
2019-05-25T12:36:57.535Z,1036.00
2019-05-25T12:37:57.522Z,988.00
2019-05-25T12:38:57.514Z,1084.00
2019-05-25T12:39:57.503Z,1164.00
2019-05-25T12:40:57.499Z,1248.00